sensor_id;sensor_type;location;lat;lon;timestamp;temperature;humidity
40077;DHT22;25777;47.824;18.982;2023-04-21T00:01:31;8.00;99.90
40077;DHT22;25777;47.824;18.982;2023-04-21T00:06:27;8.10;99.90
40077;DHT22;25777;47.824;18.982;2023-04-21T00:08:55;8.10;99.90
40077;DHT22;25777;47.824;18.982;2023-04-21T00:14:12;7.90;99.90
40077;DHT22;25777;47.824;18.982;2023-04-21T00:19:07;8.00;99.90
40077;DHT22;25777;47.824;18.982;2023-04-21T00:21:33;7.80;99.90
40077;DHT22;25777;47.824;18.982;2023-04-21T00:24:12;7.90;99.90
40077;DHT22;25777;47.824;18.982;2023-04-21T00:26:44;8.00;99.90
40077;DHT22;25777;47.824;18.982;2023-04-21T00:31:49;7.60;99.90
40077;DHT22;25777;47.824;18.982;2023-04-21T00:34:17;7.80;99.90
40077;DHT22;25777;47.824;18.982;2023-04-21T00:36:44;7.50;99.90
40077;DHT22;25777;47.824;18.982;2023-04-21T00:41:39;7.20;99.90
40077;DHT22;25777;47.824;18.982;2023-04-21T00:44:08;7.20;99.90
40077;DHT22;25777;47.824;18.982;2023-04-21T00:46:39;7.40;99.90
40077;DHT22;25777;47.824;18.982;2023-04-21T00:49:25;7.30;99.90
40077;DHT22;25777;47.824;18.982;2023-04-21T00:54:23;7.10;99.90
40077;DHT22;25777;47.824;18.982;2023-04-21T00:57:02;7.20;99.90
40077;DHT22;25777;47.824;18.982;2023-04-21T01:01:57;7.20;99.90
40077;DHT22;25777;47.824;18.982;2023-04-21T01:04:24;7.10;99.90
40077;DHT22;25777;47.824;18.982;2023-04-21T01:09:28;7.00;99.90
40077;DHT22;25777;47.824;18.982;2023-04-21T01:19:55;6.90;99.90
40077;DHT22;25777;47.824;18.982;2023-04-21T01:22:28;6.60;99.90
40077;DHT22;25777;47.824;18.982;2023-04-21T01:24:58;6.60;99.90
40077;DHT22;25777;47.824;18.982;2023-04-21T01:27:25;6.60;99.90
40077;DHT22;25777;47.824;18.982;2023-04-21T01:32:37;6.70;99.90
40077;DHT22;25777;47.824;18.982;2023-04-21T01:35:18;6.40;99.90
40077;DHT22;25777;47.824;18.982;2023-04-21T01:37:44;6.50;99.90
40077;DHT22;25777;47.824;18.982;2023-04-21T01:40:12;6.50;99.90
40077;DHT22;25777;47.824;18.982;2023-04-21T01:42:40;6.50;99.90
40077;DHT22;25777;47.824;18.982;2023-04-21T01:45:08;6.40;99.90
40077;DHT22;25777;47.824;18.982;2023-04-21T01:47:48;6.40;99.90
40077;DHT22;25777;47.824;18.982;2023-04-21T01:52:50;6.50;99.90
40077;DHT22;25777;47.824;18.982;2023-04-21T01:57:58;6.30;99.90
40077;DHT22;25777;47.824;18.982;2023-04-21T02:00:36;6.40;99.90
40077;DHT22;25777;47.824;18.982;2023-04-21T02:05:49;6.20;99.90
40077;DHT22;25777;47.824;18.982;2023-04-21T02:08:21;6.20;99.90
40077;DHT22;25777;47.824;18.982;2023-04-21T02:10:47;6.20;99.90
40077;DHT22;25777;47.824;18.982;2023-04-21T02:13:20;6.30;99.90
40077;DHT22;25777;47.824;18.982;2023-04-21T02:15:59;6.20;99.90
40077;DHT22;25777;47.824;18.982;2023-04-21T02:18:26;6.10;99.90
40077;DHT22;25777;47.824;18.982;2023-04-21T02:20:54;6.00;99.90
40077;DHT22;25777;47.824;18.982;2023-04-21T02:23:28;5.90;99.90
40077;DHT22;25777;47.824;18.982;2023-04-21T02:31:10;6.00;99.90
40077;DHT22;25777;47.824;18.982;2023-04-21T02:33:50;6.00;99.90
40077;DHT22;25777;47.824;18.982;2023-04-21T02:36:24;5.90;99.90
40077;DHT22;25777;47.824;18.982;2023-04-21T02:38:51;5.90;99.90
40077;DHT22;25777;47.824;18.982;2023-04-21T02:43:54;5.70;99.90
40077;DHT22;25777;47.824;18.982;2023-04-21T02:51:20;6.00;99.90
40077;DHT22;25777;47.824;18.982;2023-04-21T02:56:17;5.80;99.90
40077;DHT22;25777;47.824;18.982;2023-04-21T02:58:43;5.60;99.90
40077;DHT22;25777;47.824;18.982;2023-04-21T03:01:13;5.70;99.90
40077;DHT22;25777;47.824;18.982;2023-04-21T03:03:41;5.60;99.90
40077;DHT22;25777;47.824;18.982;2023-04-21T03:06:08;5.60;99.90
40077;DHT22;25777;47.824;18.982;2023-04-21T03:08:34;5.60;99.90
40077;DHT22;25777;47.824;18.982;2023-04-21T03:13:45;5.80;99.90
40077;DHT22;25777;47.824;18.982;2023-04-21T03:16:11;5.50;99.90
40077;DHT22;25777;47.824;18.982;2023-04-21T03:18:37;5.50;99.90
40077;DHT22;25777;47.824;18.982;2023-04-21T03:21:14;5.50;99.90
40077;DHT22;25777;47.824;18.982;2023-04-21T03:23:51;5.50;99.90
40077;DHT22;25777;47.824;18.982;2023-04-21T03:26:18;5.40;99.90
40077;DHT22;25777;47.824;18.982;2023-04-21T03:28:47;5.20;99.90
40077;DHT22;25777;47.824;18.982;2023-04-21T03:31:13;5.30;99.90
40077;DHT22;25777;47.824;18.982;2023-04-21T03:33:39;5.30;99.90
40077;DHT22;25777;47.824;18.982;2023-04-21T03:36:05;5.40;99.90
40077;DHT22;25777;47.824;18.982;2023-04-21T03:38:31;5.40;99.90
40077;DHT22;25777;47.824;18.982;2023-04-21T03:40:56;5.40;99.90
40077;DHT22;25777;47.824;18.982;2023-04-21T03:43:22;5.20;99.90
40077;DHT22;25777;47.824;18.982;2023-04-21T03:45:49;5.40;99.90
40077;DHT22;25777;47.824;18.982;2023-04-21T03:48:15;5.30;99.90
40077;DHT22;25777;47.824;18.982;2023-04-21T03:50:44;5.30;99.90
40077;DHT22;25777;47.824;18.982;2023-04-21T03:55:42;5.60;99.90
40077;DHT22;25777;47.824;18.982;2023-04-21T04:00:37;5.30;99.90
40077;DHT22;25777;47.824;18.982;2023-04-21T04:03:03;5.20;99.90
40077;DHT22;25777;47.824;18.982;2023-04-21T04:05:31;5.40;99.90
40077;DHT22;25777;47.824;18.982;2023-04-21T04:10:29;5.40;99.90
40077;DHT22;25777;47.824;18.982;2023-04-21T04:12:55;5.60;99.90
40077;DHT22;25777;47.824;18.982;2023-04-21T04:15:21;5.60;99.90
40077;DHT22;25777;47.824;18.982;2023-04-21T04:20:24;5.80;99.90
40077;DHT22;25777;47.824;18.982;2023-04-21T04:22:51;5.80;99.90
40077;DHT22;25777;47.824;18.982;2023-04-21T04:25:17;6.00;99.90
40077;DHT22;25777;47.824;18.982;2023-04-21T04:30:48;6.20;99.90
40077;DHT22;25777;47.824;18.982;2023-04-21T04:33:13;6.20;99.90
40077;DHT22;25777;47.824;18.982;2023-04-21T04:35:44;6.20;99.90
40077;DHT22;25777;47.824;18.982;2023-04-21T04:38:12;6.40;99.90
40077;DHT22;25777;47.824;18.982;2023-04-21T04:40:42;6.40;99.90
40077;DHT22;25777;47.824;18.982;2023-04-21T04:43:08;6.60;99.90
40077;DHT22;25777;47.824;18.982;2023-04-21T04:48:25;6.50;99.90
40077;DHT22;25777;47.824;18.982;2023-04-21T04:56:11;6.90;99.90
40077;DHT22;25777;47.824;18.982;2023-04-21T04:58:38;6.90;99.90
40077;DHT22;25777;47.824;18.982;2023-04-21T05:01:15;7.00;99.90
40077;DHT22;25777;47.824;18.982;2023-04-21T05:06:35;7.10;99.90
40077;DHT22;25777;47.824;18.982;2023-04-21T05:09:00;7.30;99.90
40077;DHT22;25777;47.824;18.982;2023-04-21T05:11:28;7.30;99.90
40077;DHT22;25777;47.824;18.982;2023-04-21T05:16:23;7.60;99.90
40077;DHT22;25777;47.824;18.982;2023-04-21T05:18:59;7.60;99.90
40077;DHT22;25777;47.824;18.982;2023-04-21T05:21:25;7.70;99.90
40077;DHT22;25777;47.824;18.982;2023-04-21T05:23:55;7.90;99.90
40077;DHT22;25777;47.824;18.982;2023-04-21T05:26:23;8.00;99.90
40077;DHT22;25777;47.824;18.982;2023-04-21T05:28:50;8.10;99.90
40077;DHT22;25777;47.824;18.982;2023-04-21T05:31:15;8.30;99.90
40077;DHT22;25777;47.824;18.982;2023-04-21T05:36:11;8.50;99.90
40077;DHT22;25777;47.824;18.982;2023-04-21T05:38:39;8.70;99.90
40077;DHT22;25777;47.824;18.982;2023-04-21T05:41:17;8.80;99.90
40077;DHT22;25777;47.824;18.982;2023-04-21T05:43:43;9.10;99.90
40077;DHT22;25777;47.824;18.982;2023-04-21T05:48:40;9.50;99.90
40077;DHT22;25777;47.824;18.982;2023-04-21T05:51:10;10.10;99.90
40077;DHT22;25777;47.824;18.982;2023-04-21T05:53:39;10.20;99.90
40077;DHT22;25777;47.824;18.982;2023-04-21T05:56:13;10.40;99.90
40077;DHT22;25777;47.824;18.982;2023-04-21T05:58:40;10.60;99.90
40077;DHT22;25777;47.824;18.982;2023-04-21T06:01:13;10.80;99.90
40077;DHT22;25777;47.824;18.982;2023-04-21T06:03:41;11.00;99.90
40077;DHT22;25777;47.824;18.982;2023-04-21T06:08:52;11.50;99.90
40077;DHT22;25777;47.824;18.982;2023-04-21T06:11:25;12.10;96.60
40077;DHT22;25777;47.824;18.982;2023-04-21T06:13:51;12.60;89.00
40077;DHT22;25777;47.824;18.982;2023-04-21T06:16:31;12.90;89.40
40077;DHT22;25777;47.824;18.982;2023-04-21T06:19:00;13.10;86.50
40077;DHT22;25777;47.824;18.982;2023-04-21T06:21:29;13.10;83.20
40077;DHT22;25777;47.824;18.982;2023-04-21T06:26:31;13.40;79.90
40077;DHT22;25777;47.824;18.982;2023-04-21T06:29:01;13.50;80.80
40077;DHT22;25777;47.824;18.982;2023-04-21T06:31:28;13.50;77.30
40077;DHT22;25777;47.824;18.982;2023-04-21T06:33:55;13.70;79.10
40077;DHT22;25777;47.824;18.982;2023-04-21T06:38:50;13.90;76.10
40077;DHT22;25777;47.824;18.982;2023-04-21T06:41:16;14.00;77.30
40077;DHT22;25777;47.824;18.982;2023-04-21T06:43:42;14.10;74.10
40077;DHT22;25777;47.824;18.982;2023-04-21T06:46:11;14.10;74.50
40077;DHT22;25777;47.824;18.982;2023-04-21T06:48:37;14.20;75.70
40077;DHT22;25777;47.824;18.982;2023-04-21T06:51:03;14.30;81.00
40077;DHT22;25777;47.824;18.982;2023-04-21T06:53:36;14.50;79.20
40077;DHT22;25777;47.824;18.982;2023-04-21T07:01:17;14.70;74.60
40077;DHT22;25777;47.824;18.982;2023-04-21T07:03:49;14.80;73.10
40077;DHT22;25777;47.824;18.982;2023-04-21T07:06:22;14.90;72.60
40077;DHT22;25777;47.824;18.982;2023-04-21T07:08:48;15.00;70.60
40077;DHT22;25777;47.824;18.982;2023-04-21T07:11:16;15.10;73.20
40077;DHT22;25777;47.824;18.982;2023-04-21T07:13:45;15.10;73.80
40077;DHT22;25777;47.824;18.982;2023-04-21T07:16:22;15.10;71.90
40077;DHT22;25777;47.824;18.982;2023-04-21T07:18:48;15.30;72.40
40077;DHT22;25777;47.824;18.982;2023-04-21T07:21:21;15.30;68.80
40077;DHT22;25777;47.824;18.982;2023-04-21T07:23:52;15.40;74.10
40077;DHT22;25777;47.824;18.982;2023-04-21T07:26:18;15.50;71.00
40077;DHT22;25777;47.824;18.982;2023-04-21T07:28:46;15.50;72.70
40077;DHT22;25777;47.824;18.982;2023-04-21T07:36:26;15.80;68.10
40077;DHT22;25777;47.824;18.982;2023-04-21T07:38:52;16.10;73.40
40077;DHT22;25777;47.824;18.982;2023-04-21T07:41:18;16.10;68.10
40077;DHT22;25777;47.824;18.982;2023-04-21T07:43:46;16.30;69.50
40077;DHT22;25777;47.824;18.982;2023-04-21T07:46:13;16.40;67.70
40077;DHT22;25777;47.824;18.982;2023-04-21T07:53:38;16.70;66.90
40077;DHT22;25777;47.824;18.982;2023-04-21T07:56:20;16.60;65.10
40077;DHT22;25777;47.824;18.982;2023-04-21T07:58:47;16.70;65.50
40077;DHT22;25777;47.824;18.982;2023-04-21T08:01:21;16.80;65.10
40077;DHT22;25777;47.824;18.982;2023-04-21T08:03:49;16.90;63.90
40077;DHT22;25777;47.824;18.982;2023-04-21T08:08:46;17.20;66.50
40077;DHT22;25777;47.824;18.982;2023-04-21T08:14:14;17.30;65.50
40077;DHT22;25777;47.824;18.982;2023-04-21T08:16:40;17.60;63.50
40077;DHT22;25777;47.824;18.982;2023-04-21T08:19:07;17.50;62.70
40077;DHT22;25777;47.824;18.982;2023-04-21T08:21:34;17.70;59.90
40077;DHT22;25777;47.824;18.982;2023-04-21T08:26:30;18.10;62.20
40077;DHT22;25777;47.824;18.982;2023-04-21T08:29:04;17.90;65.50
40077;DHT22;25777;47.824;18.982;2023-04-21T08:31:43;17.80;61.60
40077;DHT22;25777;47.824;18.982;2023-04-21T08:34:11;17.80;62.90
40077;DHT22;25777;47.824;18.982;2023-04-21T08:36:37;18.00;64.10
40077;DHT22;25777;47.824;18.982;2023-04-21T08:39:04;18.10;60.90
40077;DHT22;25777;47.824;18.982;2023-04-21T08:41:31;18.20;61.40
40077;DHT22;25777;47.824;18.982;2023-04-21T08:43:57;18.20;60.80
40077;DHT22;25777;47.824;18.982;2023-04-21T08:46:31;18.40;62.50
40077;DHT22;25777;47.824;18.982;2023-04-21T08:49:04;18.30;60.10
40077;DHT22;25777;47.824;18.982;2023-04-21T08:51:31;18.60;60.90
40077;DHT22;25777;47.824;18.982;2023-04-21T08:53:58;18.90;60.60
40077;DHT22;25777;47.824;18.982;2023-04-21T08:56:27;18.90;58.80
40077;DHT22;25777;47.824;18.982;2023-04-21T08:59:00;19.20;62.80
40077;DHT22;25777;47.824;18.982;2023-04-21T09:01:27;19.30;55.70
40077;DHT22;25777;47.824;18.982;2023-04-21T09:03:58;19.40;60.20
40077;DHT22;25777;47.824;18.982;2023-04-21T09:06:45;19.50;59.80
40077;DHT22;25777;47.824;18.982;2023-04-21T09:09:11;19.50;58.00
40077;DHT22;25777;47.824;18.982;2023-04-21T09:14:06;19.90;59.60
40077;DHT22;25777;47.824;18.982;2023-04-21T09:16:33;19.80;54.70
40077;DHT22;25777;47.824;18.982;2023-04-21T09:18:59;20.00;57.60
40077;DHT22;25777;47.824;18.982;2023-04-21T09:21:28;20.00;57.20
40077;DHT22;25777;47.824;18.982;2023-04-21T09:23:56;20.00;56.70
40077;DHT22;25777;47.824;18.982;2023-04-21T09:26:21;20.20;53.70
40077;DHT22;25777;47.824;18.982;2023-04-21T09:28:48;20.10;53.80
40077;DHT22;25777;47.824;18.982;2023-04-21T09:36:31;20.00;56.00
40077;DHT22;25777;47.824;18.982;2023-04-21T09:38:58;20.20;57.00
40077;DHT22;25777;47.824;18.982;2023-04-21T09:41:27;19.40;54.50
40077;DHT22;25777;47.824;18.982;2023-04-21T09:43:53;18.90;57.30
40077;DHT22;25777;47.824;18.982;2023-04-21T09:46:33;18.80;60.30
40077;DHT22;25777;47.824;18.982;2023-04-21T09:49:00;19.40;56.90
40077;DHT22;25777;47.824;18.982;2023-04-21T09:51:36;19.10;57.40
40077;DHT22;25777;47.824;18.982;2023-04-21T09:54:06;18.80;58.80
40077;DHT22;25777;47.824;18.982;2023-04-21T09:56:32;18.50;57.90
40077;DHT22;25777;47.824;18.982;2023-04-21T09:59:02;18.50;57.30
40077;DHT22;25777;47.824;18.982;2023-04-21T10:01:29;18.40;55.40
40077;DHT22;25777;47.824;18.982;2023-04-21T10:03:55;18.60;57.50
40077;DHT22;25777;47.824;18.982;2023-04-21T10:06:21;18.70;57.70
40077;DHT22;25777;47.824;18.982;2023-04-21T10:08:48;18.30;57.10
40077;DHT22;25777;47.824;18.982;2023-04-21T10:11:20;18.30;57.00
40077;DHT22;25777;47.824;18.982;2023-04-21T10:13:45;18.20;57.30
40077;DHT22;25777;47.824;18.982;2023-04-21T10:16:11;18.00;55.60
40077;DHT22;25777;47.824;18.982;2023-04-21T10:18:37;17.90;57.40
40077;DHT22;25777;47.824;18.982;2023-04-21T10:21:06;17.70;56.90
40077;DHT22;25777;47.824;18.982;2023-04-21T10:23:44;17.60;54.70
40077;DHT22;25777;47.824;18.982;2023-04-21T10:26:14;17.70;57.40
40077;DHT22;25777;47.824;18.982;2023-04-21T10:44:43;17.90;54.10
40077;DHT22;25777;47.824;18.982;2023-04-21T10:47:09;17.70;56.80
40077;DHT22;25777;47.824;18.982;2023-04-21T10:49:39;17.60;61.30
40077;DHT22;25777;47.824;18.982;2023-04-21T10:52:11;17.90;59.90
40077;DHT22;25777;47.824;18.982;2023-04-21T10:54:47;19.20;60.00
40077;DHT22;25777;47.824;18.982;2023-04-21T10:57:30;19.40;56.50
40077;DHT22;25777;47.824;18.982;2023-04-21T11:02:39;19.90;53.50
40077;DHT22;25777;47.824;18.982;2023-04-21T11:05:05;20.40;54.60
40077;DHT22;25777;47.824;18.982;2023-04-21T11:07:40;20.50;52.50
40077;DHT22;25777;47.824;18.982;2023-04-21T11:10:06;20.30;51.90
40077;DHT22;25777;47.824;18.982;2023-04-21T11:12:33;19.80;55.80
40077;DHT22;25777;47.824;18.982;2023-04-21T11:15:10;19.50;58.60
40077;DHT22;25777;47.824;18.982;2023-04-21T11:17:37;19.30;55.90
40077;DHT22;25777;47.824;18.982;2023-04-21T11:20:08;19.10;54.80
40077;DHT22;25777;47.824;18.982;2023-04-21T11:22:35;18.70;55.40
40077;DHT22;25777;47.824;18.982;2023-04-21T11:25:01;18.40;55.50
40077;DHT22;25777;47.824;18.982;2023-04-21T11:27:33;18.30;55.70
40077;DHT22;25777;47.824;18.982;2023-04-21T11:30:03;18.10;58.20
40077;DHT22;25777;47.824;18.982;2023-04-21T11:35:04;17.90;54.90
40077;DHT22;25777;47.824;18.982;2023-04-21T11:40:17;17.90;57.30
40077;DHT22;25777;47.824;18.982;2023-04-21T11:42:43;18.00;55.70
40077;DHT22;25777;47.824;18.982;2023-04-21T11:45:17;18.10;56.70
40077;DHT22;25777;47.824;18.982;2023-04-21T11:53:07;18.50;55.10
40077;DHT22;25777;47.824;18.982;2023-04-21T11:58:04;18.70;57.80
40077;DHT22;25777;47.824;18.982;2023-04-21T12:00:32;18.70;54.60
40077;DHT22;25777;47.824;18.982;2023-04-21T12:05:36;18.60;54.70
40077;DHT22;25777;47.824;18.982;2023-04-21T12:08:20;18.50;54.40
40077;DHT22;25777;47.824;18.982;2023-04-21T12:10:52;18.50;53.20
40077;DHT22;25777;47.824;18.982;2023-04-21T12:19:03;18.70;57.00
40077;DHT22;25777;47.824;18.982;2023-04-21T12:24:05;18.80;52.20
40077;DHT22;25777;47.824;18.982;2023-04-21T12:26:32;18.80;52.90
40077;DHT22;25777;47.824;18.982;2023-04-21T12:29:05;19.00;52.50
40077;DHT22;25777;47.824;18.982;2023-04-21T12:31:37;19.10;50.80
40077;DHT22;25777;47.824;18.982;2023-04-21T12:36:54;19.70;54.10
40077;DHT22;25777;47.824;18.982;2023-04-21T12:39:20;19.50;53.70
40077;DHT22;25777;47.824;18.982;2023-04-21T12:41:54;19.10;54.20
40077;DHT22;25777;47.824;18.982;2023-04-21T12:44:29;19.00;54.90
40077;DHT22;25777;47.824;18.982;2023-04-21T12:47:04;18.90;55.10
40077;DHT22;25777;47.824;18.982;2023-04-21T12:49:30;18.80;55.40
40077;DHT22;25777;47.824;18.982;2023-04-21T12:52:11;18.60;52.20
40077;DHT22;25777;47.824;18.982;2023-04-21T12:54:37;18.50;53.60
40077;DHT22;25777;47.824;18.982;2023-04-21T12:57:05;18.50;55.60
40077;DHT22;25777;47.824;18.982;2023-04-21T13:02:02;18.70;53.80
40077;DHT22;25777;47.824;18.982;2023-04-21T13:04:27;18.50;53.00
40077;DHT22;25777;47.824;18.982;2023-04-21T13:06:55;18.60;53.70
40077;DHT22;25777;47.824;18.982;2023-04-21T13:09:24;18.80;54.20
40077;DHT22;25777;47.824;18.982;2023-04-21T13:11:57;19.00;55.80
40077;DHT22;25777;47.824;18.982;2023-04-21T13:14:36;19.00;56.70
40077;DHT22;25777;47.824;18.982;2023-04-21T13:17:05;19.00;57.90
40077;DHT22;25777;47.824;18.982;2023-04-21T13:19:32;18.90;52.40
40077;DHT22;25777;47.824;18.982;2023-04-21T13:21:58;19.00;53.20
40077;DHT22;25777;47.824;18.982;2023-04-21T13:24:26;19.20;55.90
40077;DHT22;25777;47.824;18.982;2023-04-21T13:26:53;19.20;55.50
40077;DHT22;25777;47.824;18.982;2023-04-21T13:31:59;19.00;54.10
40077;DHT22;25777;47.824;18.982;2023-04-21T13:34:26;18.90;53.70
40077;DHT22;25777;47.824;18.982;2023-04-21T13:36:52;18.80;51.00
40077;DHT22;25777;47.824;18.982;2023-04-21T13:39:20;18.70;53.80
40077;DHT22;25777;47.824;18.982;2023-04-21T13:41:51;18.70;55.30
40077;DHT22;25777;47.824;18.982;2023-04-21T13:44:17;18.70;53.70
40077;DHT22;25777;47.824;18.982;2023-04-21T13:46:43;18.60;53.00
40077;DHT22;25777;47.824;18.982;2023-04-21T13:49:11;18.70;55.80
40077;DHT22;25777;47.824;18.982;2023-04-21T13:54:33;18.70;53.40
40077;DHT22;25777;47.824;18.982;2023-04-21T13:57:00;18.70;54.50
40077;DHT22;25777;47.824;18.982;2023-04-21T13:59:26;18.60;51.90
40077;DHT22;25777;47.824;18.982;2023-04-21T14:01:52;18.60;55.70
40077;DHT22;25777;47.824;18.982;2023-04-21T14:04:19;18.50;55.60
40077;DHT22;25777;47.824;18.982;2023-04-21T14:06:45;18.50;55.90
40077;DHT22;25777;47.824;18.982;2023-04-21T14:09:11;18.50;55.70
40077;DHT22;25777;47.824;18.982;2023-04-21T14:19:10;18.90;56.90
40077;DHT22;25777;47.824;18.982;2023-04-21T14:21:40;18.80;58.70
40077;DHT22;25777;47.824;18.982;2023-04-21T14:24:06;19.00;57.50
40077;DHT22;25777;47.824;18.982;2023-04-21T14:26:31;19.40;55.70
40077;DHT22;25777;47.824;18.982;2023-04-21T14:28:59;18.90;55.40
40077;DHT22;25777;47.824;18.982;2023-04-21T14:31:26;18.70;56.90
40077;DHT22;25777;47.824;18.982;2023-04-21T14:36:22;19.20;52.80
40077;DHT22;25777;47.824;18.982;2023-04-21T14:38:49;19.20;52.20
40077;DHT22;25777;47.824;18.982;2023-04-21T14:41:15;18.90;53.80
40077;DHT22;25777;47.824;18.982;2023-04-21T14:46:12;18.40;54.70
40077;DHT22;25777;47.824;18.982;2023-04-21T14:48:38;18.70;57.00
40077;DHT22;25777;47.824;18.982;2023-04-21T14:53:35;18.90;52.70
40077;DHT22;25777;47.824;18.982;2023-04-21T14:56:08;19.10;54.20
40077;DHT22;25777;47.824;18.982;2023-04-21T15:01:11;19.20;52.80
40077;DHT22;25777;47.824;18.982;2023-04-21T15:03:47;19.00;55.20
40077;DHT22;25777;47.824;18.982;2023-04-21T15:06:13;19.10;54.80
40077;DHT22;25777;47.824;18.982;2023-04-21T15:08:40;19.10;55.50
40077;DHT22;25777;47.824;18.982;2023-04-21T15:11:20;19.20;56.10
40077;DHT22;25777;47.824;18.982;2023-04-21T15:13:50;19.00;55.80
40077;DHT22;25777;47.824;18.982;2023-04-21T15:16:23;19.00;55.20
40077;DHT22;25777;47.824;18.982;2023-04-21T15:18:48;18.90;52.40
40077;DHT22;25777;47.824;18.982;2023-04-21T15:23:44;19.30;54.90
40077;DHT22;25777;47.824;18.982;2023-04-21T15:26:10;19.30;54.30
40077;DHT22;25777;47.824;18.982;2023-04-21T15:28:36;19.20;51.20
40077;DHT22;25777;47.824;18.982;2023-04-21T15:31:04;19.10;56.10
40077;DHT22;25777;47.824;18.982;2023-04-21T15:33:30;18.90;53.60
40077;DHT22;25777;47.824;18.982;2023-04-21T15:38:41;18.90;52.60
40077;DHT22;25777;47.824;18.982;2023-04-21T15:41:16;18.70;53.80
40077;DHT22;25777;47.824;18.982;2023-04-21T15:43:44;18.60;55.10
40077;DHT22;25777;47.824;18.982;2023-04-21T15:48:47;18.50;54.90
40077;DHT22;25777;47.824;18.982;2023-04-21T15:51:12;18.40;55.60
40077;DHT22;25777;47.824;18.982;2023-04-21T15:53:41;18.40;54.50
40077;DHT22;25777;47.824;18.982;2023-04-21T15:59:01;18.30;57.20
40077;DHT22;25777;47.824;18.982;2023-04-21T16:01:29;18.40;54.00
40077;DHT22;25777;47.824;18.982;2023-04-21T16:04:00;18.40;56.60
40077;DHT22;25777;47.824;18.982;2023-04-21T16:06:25;18.10;59.90
40077;DHT22;25777;47.824;18.982;2023-04-21T16:08:56;17.80;61.60
40077;DHT22;25777;47.824;18.982;2023-04-21T16:11:22;17.60;61.80
40077;DHT22;25777;47.824;18.982;2023-04-21T16:13:48;17.30;62.70
40077;DHT22;25777;47.824;18.982;2023-04-21T16:16:14;17.10;67.30
40077;DHT22;25777;47.824;18.982;2023-04-21T16:18:42;17.10;63.00
40077;DHT22;25777;47.824;18.982;2023-04-21T16:21:09;17.10;60.00
40077;DHT22;25777;47.824;18.982;2023-04-21T16:23:36;17.00;62.90
40077;DHT22;25777;47.824;18.982;2023-04-21T16:31:02;16.60;68.00
40077;DHT22;25777;47.824;18.982;2023-04-21T16:33:29;16.50;64.60
40077;DHT22;25777;47.824;18.982;2023-04-21T16:35:55;16.40;66.90
40077;DHT22;25777;47.824;18.982;2023-04-21T16:38:23;16.30;67.80
40077;DHT22;25777;47.824;18.982;2023-04-21T16:43:24;15.90;68.80
40077;DHT22;25777;47.824;18.982;2023-04-21T16:45:50;15.90;68.30
40077;DHT22;25777;47.824;18.982;2023-04-21T16:48:16;15.80;70.20
40077;DHT22;25777;47.824;18.982;2023-04-21T16:50:44;15.80;70.80
40077;DHT22;25777;47.824;18.982;2023-04-21T16:53:10;15.70;71.60
40077;DHT22;25777;47.824;18.982;2023-04-21T16:55:37;15.50;73.00
40077;DHT22;25777;47.824;18.982;2023-04-21T16:58:03;15.40;74.40
40077;DHT22;25777;47.824;18.982;2023-04-21T17:00:34;15.30;74.00
40077;DHT22;25777;47.824;18.982;2023-04-21T17:03:02;15.20;75.40
40077;DHT22;25777;47.824;18.982;2023-04-21T17:05:28;15.20;73.80
40077;DHT22;25777;47.824;18.982;2023-04-21T17:07:55;15.10;74.70
40077;DHT22;25777;47.824;18.982;2023-04-21T17:10:21;15.00;76.30
40077;DHT22;25777;47.824;18.982;2023-04-21T17:12:47;14.90;76.70
40077;DHT22;25777;47.824;18.982;2023-04-21T17:15:15;14.70;78.20
40077;DHT22;25777;47.824;18.982;2023-04-21T17:20:12;14.40;81.10
40077;DHT22;25777;47.824;18.982;2023-04-21T17:22:40;14.20;83.40
40077;DHT22;25777;47.824;18.982;2023-04-21T17:25:07;14.00;84.00
40077;DHT22;25777;47.824;18.982;2023-04-21T17:27:34;13.90;84.90
40077;DHT22;25777;47.824;18.982;2023-04-21T17:30:01;13.80;87.00
40077;DHT22;25777;47.824;18.982;2023-04-21T17:32:27;13.70;89.20
40077;DHT22;25777;47.824;18.982;2023-04-21T17:34:54;13.50;90.20
40077;DHT22;25777;47.824;18.982;2023-04-21T17:37:20;13.50;90.40
40077;DHT22;25777;47.824;18.982;2023-04-21T17:39:46;13.50;90.70
40077;DHT22;25777;47.824;18.982;2023-04-21T17:42:12;13.40;91.00
40077;DHT22;25777;47.824;18.982;2023-04-21T17:44:39;13.30;91.90
40077;DHT22;25777;47.824;18.982;2023-04-21T17:47:06;13.20;91.40
40077;DHT22;25777;47.824;18.982;2023-04-21T17:49:34;13.20;91.30
40077;DHT22;25777;47.824;18.982;2023-04-21T17:54:31;13.10;92.40
40077;DHT22;25777;47.824;18.982;2023-04-21T17:56:57;12.90;92.30
40077;DHT22;25777;47.824;18.982;2023-04-21T17:59:24;12.50;93.40
40077;DHT22;25777;47.824;18.982;2023-04-21T18:01:51;12.40;93.90
40077;DHT22;25777;47.824;18.982;2023-04-21T18:04:18;12.50;94.50
40077;DHT22;25777;47.824;18.982;2023-04-21T18:06:46;12.50;93.80
40077;DHT22;25777;47.824;18.982;2023-04-21T18:09:13;12.40;94.10
40077;DHT22;25777;47.824;18.982;2023-04-21T18:11:40;12.20;94.70
40077;DHT22;25777;47.824;18.982;2023-04-21T18:14:06;12.00;95.80
40077;DHT22;25777;47.824;18.982;2023-04-21T18:16:34;11.80;96.70
40077;DHT22;25777;47.824;18.982;2023-04-21T18:19:06;11.70;96.50
40077;DHT22;25777;47.824;18.982;2023-04-21T18:24:08;11.30;99.10
40077;DHT22;25777;47.824;18.982;2023-04-21T18:26:36;11.30;99.90
40077;DHT22;25777;47.824;18.982;2023-04-21T18:29:03;11.30;99.90
40077;DHT22;25777;47.824;18.982;2023-04-21T18:31:30;11.10;99.90
40077;DHT22;25777;47.824;18.982;2023-04-21T18:36:50;10.80;99.90
40077;DHT22;25777;47.824;18.982;2023-04-21T18:41:51;10.80;99.90
40077;DHT22;25777;47.824;18.982;2023-04-21T18:44:23;10.80;99.90
40077;DHT22;25777;47.824;18.982;2023-04-21T18:46:49;10.50;99.90
40077;DHT22;25777;47.824;18.982;2023-04-21T18:49:15;10.30;99.90
40077;DHT22;25777;47.824;18.982;2023-04-21T18:51:43;10.20;99.90
40077;DHT22;25777;47.824;18.982;2023-04-21T18:54:10;10.10;99.90
40077;DHT22;25777;47.824;18.982;2023-04-21T18:56:38;10.10;99.90
40077;DHT22;25777;47.824;18.982;2023-04-21T18:59:06;10.00;99.90
40077;DHT22;25777;47.824;18.982;2023-04-21T19:01:34;9.80;99.90
40077;DHT22;25777;47.824;18.982;2023-04-21T19:04:00;9.70;99.90
40077;DHT22;25777;47.824;18.982;2023-04-21T19:06:25;9.70;99.90
40077;DHT22;25777;47.824;18.982;2023-04-21T19:08:55;9.70;99.90
40077;DHT22;25777;47.824;18.982;2023-04-21T19:11:24;9.60;99.90
40077;DHT22;25777;47.824;18.982;2023-04-21T19:13:49;9.50;99.90
40077;DHT22;25777;47.824;18.982;2023-04-21T19:16:16;9.50;99.90
40077;DHT22;25777;47.824;18.982;2023-04-21T19:18:42;9.70;99.90